createdAt,value
2022-09-11T00:00:08.244Z,19.10
2022-09-11T00:00:20.770Z,19.10
2022-09-11T00:00:32.884Z,19.10
2022-09-11T00:00:44.701Z,19.10
2022-09-11T00:00:56.354Z,19.10
2022-09-11T00:01:08.594Z,19.10
2022-09-11T00:01:21.450Z,19.10
2022-09-11T00:01:33.712Z,19.10
2022-09-11T00:01:45.666Z,19.10
2022-09-11T00:01:57.498Z,19.10
2022-09-11T00:02:09.248Z,19.10
2022-09-11T00:02:22.536Z,19.10
2022-09-11T00:02:34.384Z,19.00
2022-09-11T00:02:46.169Z,19.10
2022-09-11T00:02:57.958Z,19.10
2022-09-11T00:03:09.859Z,19.10
2022-09-11T00:03:23.212Z,19.10
2022-09-11T00:03:35.470Z,19.10
2022-09-11T00:03:47.426Z,19.10
2022-09-11T00:03:59.288Z,19.10
2022-09-11T00:04:11.018Z,19.10
2022-09-11T00:04:22.797Z,19.10
2022-09-11T00:04:34.676Z,19.10
2022-09-11T00:04:46.517Z,19.10
2022-09-11T00:04:58.416Z,19.10
2022-09-11T00:05:10.569Z,19.10
2022-09-11T00:05:22.346Z,19.00
2022-09-11T00:05:39.175Z,19.10
2022-09-11T00:05:51.517Z,19.00
2022-09-11T00:06:04.365Z,19.00
2022-09-11T00:06:28.830Z,19.00
2022-09-11T00:06:41.743Z,19.00
2022-09-11T00:06:53.519Z,19.00
2022-09-11T00:07:05.266Z,19.00
2022-09-11T00:07:16.988Z,18.90
2022-09-11T00:07:28.705Z,18.90
2022-09-11T00:07:40.475Z,18.90
2022-09-11T00:07:52.533Z,18.90
2022-09-11T00:08:04.363Z,18.90
2022-09-11T00:08:17.357Z,18.90
2022-09-11T00:08:31.982Z,18.90
2022-09-11T00:08:43.983Z,18.90
2022-09-11T00:09:00.376Z,18.90
2022-09-11T00:09:12.219Z,19.00
2022-09-11T00:09:23.942Z,19.00
2022-09-11T00:09:36.699Z,18.90
2022-09-11T00:09:48.481Z,19.00
2022-09-11T00:10:00.266Z,19.00
2022-09-11T00:10:12.154Z,19.00
2022-09-11T00:10:24.594Z,18.90
2022-09-11T00:10:40.274Z,18.90
2022-09-11T00:10:52.119Z,19.00
2022-09-11T00:11:17.557Z,18.90
2022-09-11T00:11:34.741Z,18.90
2022-09-11T00:11:46.450Z,19.00
2022-09-11T00:11:58.922Z,18.90
2022-09-11T00:12:10.624Z,18.90
2022-09-11T00:12:22.331Z,19.00
2022-09-11T00:12:34.077Z,18.90
2022-09-11T00:12:45.857Z,18.90
2022-09-11T00:12:58.802Z,18.90
2022-09-11T00:13:11.839Z,18.90
2022-09-11T00:13:23.765Z,18.90
2022-09-11T00:13:36.228Z,18.90
2022-09-11T00:13:49.481Z,18.90
2022-09-11T00:14:01.842Z,18.90
2022-09-11T00:14:14.462Z,18.90
2022-09-11T00:14:28.865Z,18.90
2022-09-11T00:14:40.761Z,18.90
2022-09-11T00:14:52.522Z,18.90
2022-09-11T00:15:04.606Z,18.90
2022-09-11T00:15:16.662Z,18.90
2022-09-11T00:15:28.500Z,18.90
2022-09-11T00:15:41.766Z,18.90
2022-09-11T00:15:53.516Z,18.90
2022-09-11T00:16:07.177Z,18.90
2022-09-11T00:16:24.419Z,18.90
2022-09-11T00:16:39.204Z,18.90
2022-09-11T00:16:51.170Z,18.90
2022-09-11T00:17:03.212Z,18.90
2022-09-11T00:17:17.294Z,18.90
2022-09-11T00:17:29.014Z,18.90
2022-09-11T00:17:40.753Z,18.90
2022-09-11T00:17:52.485Z,18.80
2022-09-11T00:18:05.133Z,18.80
2022-09-11T00:18:18.446Z,18.90
2022-09-11T00:18:30.300Z,18.80
2022-09-11T00:18:42.022Z,18.90
2022-09-11T00:18:54.321Z,18.90
2022-09-11T00:19:07.851Z,18.80
2022-09-11T00:19:20.031Z,18.80
2022-09-11T00:19:31.853Z,18.80
2022-09-11T00:19:43.563Z,18.80
2022-09-11T00:19:55.401Z,18.80
2022-09-11T00:20:07.426Z,18.80
2022-09-11T00:20:19.681Z,18.80
2022-09-11T00:20:33.084Z,18.80
2022-09-11T00:20:49.673Z,18.80
2022-09-11T00:21:01.725Z,18.80
2022-09-11T00:21:13.480Z,18.80
2022-09-11T00:21:25.748Z,18.80
2022-09-11T00:21:37.510Z,18.80
2022-09-11T00:21:52.064Z,18.80
2022-09-11T00:22:03.842Z,18.80
2022-09-11T00:22:15.602Z,18.80
2022-09-11T00:22:27.993Z,18.80
2022-09-11T00:22:39.744Z,18.80
2022-09-11T00:22:53.354Z,18.80
2022-09-11T00:23:05.527Z,18.80
2022-09-11T00:23:18.265Z,18.80
2022-09-11T00:23:30.077Z,18.80
2022-09-11T00:23:41.997Z,18.80
2022-09-11T00:23:53.797Z,18.80
2022-09-11T00:24:05.767Z,18.80
2022-09-11T00:24:17.691Z,18.80
2022-09-11T00:24:29.550Z,18.80
2022-09-11T00:24:41.433Z,18.80
2022-09-11T00:24:53.127Z,18.80
2022-09-11T00:25:05.253Z,18.80
2022-09-11T00:25:16.981Z,18.80
2022-09-11T00:25:28.760Z,18.80
2022-09-11T00:25:40.888Z,18.80
2022-09-11T00:25:52.813Z,18.80
2022-09-11T00:26:04.675Z,18.80
2022-09-11T00:26:17.668Z,18.80
2022-09-11T00:26:29.478Z,18.80
2022-09-11T00:26:42.452Z,18.80
2022-09-11T00:26:54.356Z,18.80
2022-09-11T00:27:06.669Z,18.80
2022-09-11T00:27:18.374Z,18.80
2022-09-11T00:27:30.121Z,18.80
2022-09-11T00:27:42.080Z,18.80
2022-09-11T00:27:53.929Z,18.80
2022-09-11T00:28:05.696Z,18.70
2022-09-11T00:28:22.211Z,18.70
2022-09-11T00:28:34.792Z,18.70
2022-09-11T00:28:46.817Z,18.70
2022-09-11T00:28:58.565Z,18.70
2022-09-11T00:29:10.663Z,18.70
2022-09-11T00:29:22.558Z,18.70
2022-09-11T00:29:34.301Z,18.70
2022-09-11T00:29:46.030Z,18.70
2022-09-11T00:29:57.854Z,18.70
2022-09-11T00:30:10.122Z,18.70
2022-09-11T00:30:22.731Z,18.70
2022-09-11T00:30:34.492Z,18.70
2022-09-11T00:30:47.038Z,18.70
2022-09-11T00:31:03.139Z,18.70
2022-09-11T00:31:17.489Z,18.70
2022-09-11T00:31:30.145Z,18.60
2022-09-11T00:31:42.207Z,18.70
2022-09-11T00:31:54.033Z,18.70
2022-09-11T00:32:05.791Z,18.70
2022-09-11T00:32:17.544Z,18.70
2022-09-11T00:32:29.290Z,18.70
2022-09-11T00:32:41.261Z,18.70
2022-09-11T00:32:52.977Z,18.70
2022-09-11T00:33:05.121Z,18.70
2022-09-11T00:33:17.173Z,18.70
2022-09-11T00:33:29.198Z,18.70
2022-09-11T00:33:42.066Z,18.60
2022-09-11T00:33:55.192Z,18.60
2022-09-11T00:34:09.926Z,18.60
2022-09-11T00:34:21.687Z,18.60
2022-09-11T00:34:33.682Z,18.60
2022-09-11T00:34:46.950Z,18.60
2022-09-11T00:34:58.745Z,18.60
2022-09-11T00:35:10.523Z,18.60
2022-09-11T00:35:22.493Z,18.60
2022-09-11T00:35:34.177Z,18.60
2022-09-11T00:35:54.133Z,18.60
2022-09-11T00:36:08.031Z,18.50
2022-09-11T00:36:21.501Z,18.50
2022-09-11T00:36:34.996Z,18.50
2022-09-11T00:36:48.347Z,18.50
2022-09-11T00:37:00.124Z,18.50
2022-09-11T00:37:12.261Z,18.50
2022-09-11T00:37:24.044Z,18.50
2022-09-11T00:37:35.800Z,18.50
2022-09-11T00:37:48.764Z,18.50
2022-09-11T00:38:00.497Z,18.50
2022-09-11T00:38:17.139Z,18.50
2022-09-11T00:38:30.561Z,18.50
2022-09-11T00:38:42.886Z,18.50
2022-09-11T00:38:54.969Z,18.50
2022-09-11T00:39:06.854Z,18.50
2022-09-11T00:39:18.632Z,18.50
2022-09-11T00:39:30.358Z,18.50
2022-09-11T00:39:43.039Z,18.50
2022-09-11T00:39:54.809Z,18.50
2022-09-11T00:40:07.071Z,18.50
2022-09-11T00:40:19.001Z,18.50
2022-09-11T00:40:30.774Z,18.50
2022-09-11T00:40:48.651Z,18.50
2022-09-11T00:41:01.186Z,18.50
2022-09-11T00:41:14.945Z,18.50
2022-09-11T00:41:36.234Z,18.50
2022-09-11T00:41:49.162Z,18.50
2022-09-11T00:42:01.100Z,18.50
2022-09-11T00:42:12.797Z,18.50
2022-09-11T00:42:25.274Z,18.50
2022-09-11T00:42:36.993Z,18.50
2022-09-11T00:42:55.545Z,18.50
2022-09-11T00:43:09.978Z,18.50
2022-09-11T00:43:21.818Z,18.50
2022-09-11T00:43:59.739Z,18.50
2022-09-11T00:44:16.043Z,18.50
2022-09-11T00:44:28.343Z,18.50
2022-09-11T00:44:40.496Z,18.50
2022-09-11T00:45:00.689Z,18.50
2022-09-11T00:45:21.748Z,18.50
2022-09-11T00:45:33.730Z,18.50
2022-09-11T00:45:46.412Z,18.50
2022-09-11T00:46:03.531Z,18.50
2022-09-11T00:46:15.357Z,18.50
2022-09-11T00:46:41.018Z,18.50
2022-09-11T00:46:55.670Z,18.50
2022-09-11T00:47:09.637Z,18.50
2022-09-11T00:47:22.077Z,18.50
2022-09-11T00:47:33.847Z,18.50
2022-09-11T00:47:45.563Z,18.40
2022-09-11T00:47:58.497Z,18.40
2022-09-11T00:48:10.558Z,18.40
2022-09-11T00:48:24.775Z,18.50
2022-09-11T00:48:36.517Z,18.50
2022-09-11T00:48:49.932Z,18.50
2022-09-11T00:49:03.283Z,18.50
2022-09-11T00:49:19.523Z,18.50
2022-09-11T00:49:34.989Z,18.50
2022-09-11T00:49:51.304Z,18.50
2022-09-11T00:50:09.091Z,18.50
2022-09-11T00:50:22.584Z,18.50
2022-09-11T00:50:34.279Z,18.50
2022-09-11T00:50:46.037Z,18.50
2022-09-11T00:50:58.824Z,18.50
2022-09-11T00:51:11.134Z,18.50
2022-09-11T00:51:33.770Z,18.50
2022-09-11T00:51:48.031Z,18.50
2022-09-11T00:52:08.882Z,18.50
2022-09-11T00:52:27.169Z,18.50
2022-09-11T00:52:41.082Z,18.50
2022-09-11T00:53:03.713Z,18.50
2022-09-11T00:53:16.681Z,18.50
2022-09-11T00:53:30.293Z,18.50
2022-09-11T00:53:42.350Z,18.50
2022-09-11T00:53:54.520Z,18.50
2022-09-11T00:54:06.352Z,18.50
2022-09-11T00:54:20.899Z,18.50
2022-09-11T00:54:34.150Z,18.50
2022-09-11T00:54:51.536Z,18.50
2022-09-11T00:55:14.590Z,18.50
2022-09-11T00:55:27.638Z,18.50
2022-09-11T00:55:41.522Z,18.50
2022-09-11T00:55:55.101Z,18.50
2022-09-11T00:56:07.575Z,18.50
2022-09-11T00:56:19.326Z,18.50
2022-09-11T00:56:32.124Z,18.50
2022-09-11T00:56:44.042Z,18.50
2022-09-11T00:56:55.859Z,18.50
2022-09-11T00:57:08.013Z,18.50
2022-09-11T00:57:20.827Z,18.50
2022-09-11T00:57:33.866Z,18.50
2022-09-11T00:57:49.314Z,18.40
2022-09-11T00:58:28.094Z,18.40
2022-09-11T00:58:40.012Z,18.40
2022-09-11T00:58:51.857Z,18.40
2022-09-11T00:59:04.084Z,18.40
2022-09-11T00:59:15.902Z,18.40
2022-09-11T00:59:27.784Z,18.40
2022-09-11T00:59:40.263Z,18.40
2022-09-11T00:59:52.933Z,18.40
2022-09-11T01:00:05.473Z,18.40
2022-09-11T01:00:17.258Z,18.50
2022-09-11T01:00:28.993Z,18.50
2022-09-11T01:00:42.373Z,18.50
2022-09-11T01:00:55.818Z,18.50
2022-09-11T01:01:08.091Z,18.50
2022-09-11T01:01:19.904Z,18.50
2022-09-11T01:01:31.716Z,18.50
2022-09-11T01:01:43.606Z,18.50
2022-09-11T01:01:55.455Z,18.50
2022-09-11T01:02:08.595Z,18.50
2022-09-11T01:02:24.315Z,18.50
2022-09-11T01:02:39.213Z,18.50
2022-09-11T01:02:51.457Z,18.50
2022-09-11T01:03:03.578Z,18.40
2022-09-11T01:03:15.390Z,18.50
2022-09-11T01:03:27.147Z,18.50
2022-09-11T01:03:38.966Z,18.50
2022-09-11T01:03:51.153Z,18.50
2022-09-11T01:04:03.695Z,18.50
2022-09-11T01:04:15.729Z,18.50
2022-09-11T01:04:29.259Z,18.50
2022-09-11T01:04:40.983Z,18.50
2022-09-11T01:04:53.336Z,18.40
2022-09-11T01:05:06.134Z,18.40
2022-09-11T01:05:18.616Z,18.40
2022-09-11T01:05:34.821Z,18.40
2022-09-11T01:05:46.697Z,18.40
2022-09-11T01:05:58.702Z,18.40
2022-09-11T01:06:10.677Z,18.40
2022-09-11T01:06:23.382Z,18.40
2022-09-11T01:06:35.104Z,18.40
2022-09-11T01:06:46.944Z,18.40
2022-09-11T01:06:58.705Z,18.40
2022-09-11T01:07:10.497Z,18.40
2022-09-11T01:07:22.310Z,18.40
2022-09-11T01:07:36.077Z,18.40
2022-09-11T01:07:48.065Z,18.40
2022-09-11T01:07:59.839Z,18.40
2022-09-11T01:08:12.909Z,18.40
2022-09-11T01:08:24.678Z,18.40
2022-09-11T01:08:38.411Z,18.40
2022-09-11T01:08:51.387Z,18.40
2022-09-11T01:09:03.865Z,18.40
2022-09-11T01:09:15.628Z,18.40
2022-09-11T01:09:27.373Z,18.40
2022-09-11T01:09:39.132Z,18.40
2022-09-11T01:09:51.279Z,18.40
2022-09-11T01:10:04.999Z,18.40
2022-09-11T01:10:16.788Z,18.30
2022-09-11T01:11:07.421Z,18.30
2022-09-11T01:11:44.463Z,18.30
2022-09-11T01:12:19.891Z,18.40
2022-09-11T01:13:01.096Z,18.30
2022-09-11T01:13:28.001Z,18.30
2022-09-11T01:13:53.259Z,18.30
2022-09-11T01:14:09.023Z,18.30
2022-09-11T01:14:34.155Z,18.30
2022-09-11T01:14:53.069Z,18.30
2022-09-11T01:15:05.016Z,18.30
2022-09-11T01:15:30.205Z,18.30
2022-09-11T01:15:47.356Z,18.30
2022-09-11T01:16:23.198Z,18.30
2022-09-11T01:16:53.312Z,18.30
2022-09-11T01:17:19.401Z,18.30
2022-09-11T01:17:36.219Z,18.30
2022-09-11T01:18:08.412Z,18.20
2022-09-11T01:44:37.095Z,17.70
2022-09-11T01:44:52.904Z,17.70
2022-09-11T01:45:05.767Z,17.70
2022-09-11T01:45:17.593Z,17.70
2022-09-11T01:45:31.361Z,17.70
2022-09-11T01:45:45.481Z,17.70
2022-09-11T01:45:58.580Z,17.70
2022-09-11T01:46:10.303Z,17.70
2022-09-11T01:46:23.307Z,17.70
2022-09-11T01:46:38.932Z,17.60
2022-09-11T01:46:51.970Z,17.60
2022-09-11T01:47:04.810Z,17.60
2022-09-11T01:47:16.860Z,17.60
2022-09-11T01:47:28.632Z,17.60
2022-09-11T01:47:40.705Z,17.60
2022-09-11T01:47:53.303Z,17.60
2022-09-11T01:48:05.030Z,17.60
2022-09-11T01:48:18.773Z,17.60
2022-09-11T01:48:38.992Z,17.60
2022-09-11T01:49:09.010Z,17.60
2022-09-11T01:49:25.906Z,17.60
2022-09-11T01:49:43.665Z,17.60
2022-09-11T01:50:09.683Z,17.60
2022-09-11T01:50:21.368Z,17.60
2022-09-11T01:50:33.096Z,17.60
2022-09-11T01:50:46.185Z,17.60
2022-09-11T01:50:58.024Z,17.60
2022-09-11T01:51:12.497Z,17.60
2022-09-11T01:51:27.001Z,17.60
2022-09-11T01:51:39.565Z,17.60
2022-09-11T01:51:53.787Z,17.60
2022-09-11T01:52:07.792Z,17.60
2022-09-11T01:52:22.293Z,17.60
2022-09-11T01:52:55.822Z,17.60
2022-09-11T01:53:07.584Z,17.60
2022-09-11T01:53:22.079Z,17.60
2022-09-11T01:53:37.465Z,17.60
2022-09-11T01:53:50.563Z,17.60
2022-09-11T01:54:03.116Z,17.60
2022-09-11T01:54:17.095Z,17.60
2022-09-11T01:54:33.997Z,17.60
2022-09-11T01:55:03.180Z,17.60
2022-09-11T01:55:22.813Z,17.60
2022-09-11T01:55:46.260Z,17.60
2022-09-11T01:56:08.130Z,17.60
2022-09-11T01:56:26.916Z,17.60
2022-09-11T01:56:45.611Z,17.60
2022-09-11T01:57:01.554Z,17.60
2022-09-11T01:57:25.543Z,17.60
2022-09-11T01:58:06.709Z,17.60
2022-09-11T01:58:21.456Z,17.60
2022-09-11T01:58:33.726Z,17.60
2022-09-11T01:58:45.610Z,17.60
2022-09-11T01:59:00.086Z,17.60
2022-09-11T01:59:12.696Z,17.60
2022-09-11T01:59:27.986Z,17.60
2022-09-11T01:59:51.580Z,17.60
2022-09-11T02:00:07.020Z,17.60
2022-09-11T02:00:18.853Z,17.50
2022-09-11T02:00:31.481Z,17.50
2022-09-11T02:00:44.620Z,17.50
2022-09-11T02:01:09.735Z,17.50
2022-09-11T02:01:23.343Z,17.50
2022-09-11T02:01:36.403Z,17.50
2022-09-11T02:01:51.313Z,17.50
2022-09-11T02:02:06.753Z,17.50
2022-09-11T02:02:22.164Z,17.50
2022-09-11T02:02:38.461Z,17.50
2022-09-11T02:02:53.950Z,17.50
2022-09-11T02:03:22.646Z,17.50
2022-09-11T02:03:39.672Z,17.50
2022-09-11T02:03:53.441Z,17.50
2022-09-11T02:04:08.419Z,17.40
2022-09-11T02:04:23.129Z,17.50
2022-09-11T02:04:40.972Z,17.40
2022-09-11T02:04:59.472Z,17.40
2022-09-11T02:05:15.840Z,17.50
2022-09-11T02:05:51.781Z,17.40
2022-09-11T02:06:09.564Z,17.40
2022-09-11T02:06:24.256Z,17.40
2022-09-11T02:06:56.120Z,17.40
2022-09-11T02:07:09.974Z,17.40
2022-09-11T02:07:26.832Z,17.40
2022-09-11T02:07:42.296Z,17.40
2022-09-11T02:08:12.181Z,17.40
2022-09-11T02:08:30.449Z,17.40
2022-09-11T02:08:50.714Z,17.40
2022-09-11T02:09:10.039Z,17.30
2022-09-11T02:09:22.548Z,17.30
2022-09-11T02:09:43.727Z,17.30
2022-09-11T02:10:04.883Z,17.30
2022-09-11T02:10:23.365Z,17.40
2022-09-11T02:10:52.034Z,17.30
2022-09-11T02:11:09.449Z,17.30
2022-09-11T02:11:21.291Z,17.30
2022-09-11T02:11:35.141Z,17.30
2022-09-11T02:11:47.492Z,17.30
2022-09-11T02:11:59.502Z,17.30
2022-09-11T02:12:13.000Z,17.30
2022-09-11T02:12:27.375Z,17.30
2022-09-11T02:12:50.843Z,17.30
2022-09-11T02:13:07.637Z,17.30
2022-09-11T02:13:30.297Z,17.30
2022-09-11T02:14:03.252Z,17.30
2022-09-11T02:14:21.292Z,17.30
2022-09-11T02:14:39.742Z,17.30
2022-09-11T02:14:51.544Z,17.20
2022-09-11T02:15:03.492Z,17.20
2022-09-11T02:15:15.891Z,17.20
2022-09-11T02:15:31.636Z,17.20
2022-09-11T02:15:45.065Z,17.20
2022-09-11T02:16:07.448Z,17.20
2022-09-11T02:16:21.610Z,17.20
2022-09-11T02:16:45.274Z,17.20
2022-09-11T02:17:17.366Z,17.20
2022-09-11T02:18:01.923Z,17.20
2022-09-11T02:18:26.842Z,17.20
2022-09-11T02:19:08.416Z,17.20
2022-09-11T02:19:24.247Z,17.20
2022-09-11T02:19:35.997Z,17.20
2022-09-11T02:19:49.229Z,17.20
2022-09-11T02:20:01.061Z,17.20
2022-09-11T02:20:12.824Z,17.20
2022-09-11T02:20:25.973Z,17.20
2022-09-11T02:20:37.770Z,17.20
2022-09-11T02:20:51.368Z,17.10
2022-09-11T02:21:03.153Z,17.20
2022-09-11T02:21:14.912Z,17.10
2022-09-11T02:21:27.607Z,17.20
2022-09-11T02:21:40.772Z,17.20
2022-09-11T02:21:52.499Z,17.20
2022-09-11T02:22:05.421Z,17.20
2022-09-11T02:22:17.169Z,17.10
2022-09-11T02:22:29.752Z,17.10
2022-09-11T02:22:42.212Z,17.10
2022-09-11T02:22:53.977Z,17.10
2022-09-11T02:23:07.073Z,17.20
2022-09-11T02:23:19.471Z,17.20
2022-09-11T02:23:31.285Z,17.20
2022-09-11T02:23:43.238Z,17.20
2022-09-11T02:23:58.124Z,17.10
2022-09-11T02:24:10.756Z,17.10
2022-09-11T02:24:22.849Z,17.10
2022-09-11T02:24:34.837Z,17.10
2022-09-11T02:24:46.624Z,17.10
2022-09-11T02:24:58.381Z,17.10
2022-09-11T02:25:10.599Z,17.10
2022-09-11T02:25:22.357Z,17.10
2022-09-11T02:25:34.104Z,17.10
2022-09-11T02:25:46.147Z,17.10
2022-09-11T02:25:57.865Z,17.10
2022-09-11T02:26:09.740Z,17.10
2022-09-11T02:26:24.319Z,17.10
2022-09-11T02:26:39.600Z,17.10
2022-09-11T02:26:54.332Z,17.10
2022-09-11T02:27:07.598Z,17.10
2022-09-11T02:27:27.306Z,17.10
2022-09-11T02:27:39.120Z,17.10
2022-09-11T02:27:51.612Z,17.10
2022-09-11T02:28:03.396Z,17.10
2022-09-11T02:28:15.121Z,17.10
2022-09-11T02:28:26.878Z,17.10
2022-09-11T02:28:38.614Z,17.10
2022-09-11T02:28:51.136Z,17.10
2022-09-11T02:29:02.940Z,17.10
2022-09-11T02:29:14.819Z,17.10
2022-09-11T02:29:26.675Z,17.10
2022-09-11T02:29:39.286Z,17.10
2022-09-11T02:29:51.053Z,17.10
2022-09-11T02:30:04.405Z,17.10
2022-09-11T02:30:16.142Z,17.10
2022-09-11T02:30:27.930Z,17.10
2022-09-11T02:30:39.925Z,17.10
2022-09-11T02:30:51.664Z,17.10
2022-09-11T02:31:03.468Z,17.10
2022-09-11T02:31:16.050Z,17.10
2022-09-11T02:31:28.106Z,17.10
2022-09-11T02:31:40.460Z,17.10
2022-09-11T02:31:52.308Z,17.10
2022-09-11T02:32:04.637Z,17.10
2022-09-11T02:32:18.761Z,17.10
2022-09-11T02:32:30.508Z,17.10
2022-09-11T02:32:43.161Z,17.00
2022-09-11T02:32:54.954Z,17.00
2022-09-11T02:33:06.757Z,17.10
2022-09-11T02:33:35.978Z,17.10
2022-09-11T02:33:47.771Z,17.10
2022-09-11T02:33:59.605Z,17.10
2022-09-11T02:34:11.957Z,17.10
2022-09-11T02:34:30.015Z,17.00
2022-09-11T02:34:42.179Z,17.00
2022-09-11T02:34:55.371Z,17.10
2022-09-11T02:35:07.493Z,17.00
2022-09-11T02:35:19.274Z,17.00
2022-09-11T02:35:36.535Z,17.00
2022-09-11T02:35:48.750Z,17.00
2022-09-11T02:36:26.452Z,17.10
2022-09-11T02:37:04.955Z,17.00
2022-09-11T02:37:49.223Z,17.10
2022-09-11T02:38:11.144Z,17.00
2022-09-11T02:38:26.795Z,17.00
2022-09-11T02:39:06.474Z,17.00
2022-09-11T02:39:27.519Z,17.00
2022-09-11T02:39:48.661Z,17.00
2022-09-11T02:40:12.748Z,17.00
2022-09-11T02:40:43.996Z,17.00
2022-09-11T02:41:15.953Z,17.00
2022-09-11T02:41:29.738Z,16.90
2022-09-11T02:42:16.038Z,17.00
2022-09-11T02:42:43.216Z,17.00
2022-09-11T02:43:13.213Z,17.00
2022-09-11T02:43:33.908Z,16.90
2022-09-11T02:44:07.380Z,16.90
2022-09-11T02:44:56.867Z,16.90
2022-09-11T02:45:28.933Z,16.90
2022-09-11T02:46:01.063Z,16.90
2022-09-11T02:46:31.562Z,16.90
2022-09-11T02:47:04.416Z,16.90
2022-09-11T02:47:54.321Z,16.90
2022-09-11T02:48:21.993Z,16.90
2022-09-11T02:48:48.448Z,16.90
2022-09-11T02:49:22.161Z,16.90
2022-09-11T02:49:51.522Z,16.90
2022-09-11T02:50:21.889Z,16.80
2022-09-11T02:50:47.058Z,16.80
2022-09-11T02:51:28.935Z,16.80
2022-09-11T02:52:11.795Z,16.80
2022-09-11T02:52:40.973Z,16.80
2022-09-11T02:53:12.929Z,16.80
2022-09-11T02:53:29.279Z,16.80
2022-09-11T02:53:53.370Z,16.80
2022-09-11T02:54:11.739Z,16.80
2022-09-11T02:54:43.788Z,16.80
2022-09-11T02:55:17.077Z,16.70
2022-09-11T02:56:05.573Z,16.70
2022-09-11T02:56:31.854Z,16.70
2022-09-11T02:56:46.669Z,16.70
2022-09-11T02:57:35.330Z,16.70
2022-09-11T02:58:03.558Z,16.70
2022-09-11T02:58:21.830Z,16.70
2022-09-11T02:59:06.874Z,16.70
2022-09-11T02:59:21.142Z,16.70
2022-09-11T02:59:37.020Z,16.70
2022-09-11T03:00:01.556Z,16.70
2022-09-11T03:00:13.539Z,16.70
2022-09-11T03:00:25.361Z,16.70
2022-09-11T03:00:37.599Z,16.70
2022-09-11T03:00:50.493Z,16.70
2022-09-11T03:01:02.892Z,16.70
2022-09-11T03:01:14.703Z,16.70
2022-09-11T03:01:26.457Z,16.60
2022-09-11T03:01:55.262Z,16.60
2022-09-11T03:02:10.093Z,16.60
2022-09-11T03:02:23.381Z,16.70
2022-09-11T03:02:37.666Z,16.60
2022-09-11T03:02:51.678Z,16.60
2022-09-11T03:03:04.371Z,16.70
2022-09-11T03:03:16.149Z,16.70
2022-09-11T03:03:28.039Z,16.70
2022-09-11T03:03:45.332Z,16.70
2022-09-11T03:03:57.737Z,16.60
2022-09-11T03:04:09.427Z,16.60
2022-09-11T03:04:22.414Z,16.60
2022-09-11T03:04:35.038Z,16.60
2022-09-11T03:04:48.443Z,16.70
2022-09-11T03:05:00.231Z,16.60
2022-09-11T03:05:11.970Z,16.70
2022-09-11T03:05:23.727Z,16.60
2022-09-11T03:05:37.126Z,16.60
2022-09-11T03:05:49.103Z,16.60
2022-09-11T03:06:00.879Z,16.60
2022-09-11T03:06:17.866Z,16.60
2022-09-11T03:06:29.740Z,16.60
2022-09-11T03:06:43.186Z,16.60
2022-09-11T03:06:55.631Z,16.60
2022-09-11T03:07:08.019Z,16.60
2022-09-11T03:07:19.757Z,16.60
2022-09-11T03:07:31.523Z,16.60
2022-09-11T03:07:43.354Z,16.60
2022-09-11T03:07:55.117Z,16.60
2022-09-11T03:08:07.359Z,16.60
2022-09-11T03:08:19.212Z,16.60
2022-09-11T03:08:32.342Z,16.60
2022-09-11T03:08:44.596Z,16.60
2022-09-11T03:08:56.346Z,16.60
2022-09-11T03:09:08.192Z,16.60
2022-09-11T03:09:20.244Z,16.60
2022-09-11T03:09:33.676Z,16.60
2022-09-11T03:09:45.682Z,16.60
2022-09-11T03:09:57.500Z,16.60
2022-09-11T03:10:11.316Z,16.60
2022-09-11T03:10:23.036Z,16.60
2022-09-11T03:10:34.829Z,16.50
2022-09-11T03:10:46.968Z,16.60
2022-09-11T03:10:58.836Z,16.50
2022-09-11T03:11:10.649Z,16.50
2022-09-11T03:11:22.422Z,16.50
2022-09-11T03:11:34.197Z,16.50
2022-09-11T03:11:46.040Z,16.50
2022-09-11T03:11:57.850Z,16.50
2022-09-11T03:12:10.393Z,16.50
2022-09-11T03:12:22.120Z,16.50
2022-09-11T03:12:36.490Z,16.50
2022-09-11T03:12:48.241Z,16.50
2022-09-11T03:13:00.105Z,16.50
2022-09-11T03:13:11.892Z,16.50
2022-09-11T03:13:23.818Z,16.50
2022-09-11T03:13:36.720Z,16.50
2022-09-11T03:13:48.429Z,16.50
2022-09-11T03:14:00.241Z,16.50
2022-09-11T03:14:12.114Z,16.50
2022-09-11T03:14:23.927Z,16.50
2022-09-11T03:14:35.919Z,16.50
2022-09-11T03:14:48.665Z,16.50
2022-09-11T03:15:00.429Z,16.50
2022-09-11T03:15:12.149Z,16.40
2022-09-11T03:15:23.925Z,16.40
2022-09-11T03:15:35.590Z,16.40
2022-09-11T03:15:47.624Z,16.40
2022-09-11T03:16:01.201Z,16.40
2022-09-11T03:16:13.052Z,16.40
2022-09-11T03:16:24.864Z,16.40
2022-09-11T03:16:36.917Z,16.40
2022-09-11T03:16:50.198Z,16.40
2022-09-11T03:17:02.120Z,16.40
2022-09-11T03:17:13.922Z,16.40
2022-09-11T03:17:25.665Z,16.40
2022-09-11T03:17:37.382Z,16.40
2022-09-11T03:17:49.330Z,16.40
2022-09-11T03:18:01.536Z,16.40
2022-09-11T03:18:15.686Z,16.40
2022-09-11T03:18:27.402Z,16.40
2022-09-11T03:18:39.358Z,16.40
2022-09-11T03:18:53.615Z,16.40
2022-09-11T03:19:05.372Z,16.40
2022-09-11T03:19:17.139Z,16.40
2022-09-11T03:19:28.882Z,16.40
2022-09-11T03:19:40.605Z,16.40
2022-09-11T03:19:52.348Z,16.40
2022-09-11T03:20:04.928Z,16.40
2022-09-11T03:20:16.959Z,16.40
2022-09-11T03:20:28.730Z,16.30
2022-09-11T03:20:40.490Z,16.40
2022-09-11T03:20:52.237Z,16.30
2022-09-11T03:21:04.227Z,16.30
2022-09-11T03:21:17.069Z,16.40
2022-09-11T03:21:29.131Z,16.30
2022-09-11T03:21:40.932Z,16.30
2022-09-11T03:21:53.394Z,16.30
2022-09-11T03:22:05.261Z,16.30
2022-09-11T03:22:17.054Z,16.30
2022-09-11T03:22:28.979Z,16.30
2022-09-11T03:22:40.718Z,16.30
2022-09-11T03:22:52.454Z,16.30
2022-09-11T03:23:06.177Z,16.30
2022-09-11T03:23:17.953Z,16.30
2022-09-11T03:23:30.013Z,16.30
2022-09-11T03:23:41.859Z,16.30
2022-09-11T03:23:53.643Z,16.30
2022-09-11T03:24:06.128Z,16.30
2022-09-11T03:24:17.850Z,16.40
2022-09-11T03:24:29.730Z,16.40
2022-09-11T03:24:41.489Z,16.30
2022-09-11T03:24:53.233Z,16.30
2022-09-11T03:25:05.544Z,16.40
2022-09-11T03:25:17.823Z,16.40
2022-09-11T03:25:30.481Z,16.30
2022-09-11T03:25:42.311Z,16.30
2022-09-11T03:25:55.013Z,16.30
2022-09-11T03:26:07.265Z,16.30
2022-09-11T03:26:19.021Z,16.40
2022-09-11T03:26:35.793Z,16.30
2022-09-11T03:26:47.566Z,16.40
2022-09-11T03:26:59.337Z,16.30
2022-09-11T03:27:11.110Z,16.40
2022-09-11T03:27:23.746Z,16.40
2022-09-11T03:27:35.513Z,16.40
2022-09-11T03:27:47.258Z,16.40
2022-09-11T03:27:58.982Z,16.40
2022-09-11T03:28:10.850Z,16.40
2022-09-11T03:28:23.161Z,16.40
2022-09-11T03:28:35.283Z,16.40
2022-09-11T03:28:47.314Z,16.40
2022-09-11T03:28:59.276Z,16.40
2022-09-11T03:29:11.014Z,16.40
2022-09-11T03:29:22.746Z,16.40
2022-09-11T03:29:35.175Z,16.30
2022-09-11T03:29:47.084Z,16.30
2022-09-11T03:29:59.109Z,16.30
2022-09-11T03:30:11.197Z,16.30
2022-09-11T03:30:22.965Z,16.30
2022-09-11T03:30:34.798Z,16.30
2022-09-11T03:30:46.631Z,16.30
2022-09-11T03:30:59.280Z,16.30
2022-09-11T03:31:13.885Z,16.30
2022-09-11T03:31:25.698Z,16.30
2022-09-11T03:31:39.235Z,16.30
2022-09-11T03:31:51.668Z,16.30
2022-09-11T03:32:03.582Z,16.30
2022-09-11T03:32:16.272Z,16.30
2022-09-11T03:32:28.006Z,16.30
2022-09-11T03:32:39.842Z,16.30
2022-09-11T03:32:51.527Z,16.30
2022-09-11T03:33:03.315Z,16.30
2022-09-11T03:33:16.043Z,16.30
2022-09-11T03:33:28.143Z,16.30
2022-09-11T03:33:40.106Z,16.30
2022-09-11T03:33:52.465Z,16.30
2022-09-11T03:34:04.243Z,16.30
2022-09-11T03:34:17.726Z,16.30
2022-09-11T03:34:29.914Z,16.30
2022-09-11T03:34:41.687Z,16.30
2022-09-11T03:34:53.456Z,16.30
2022-09-11T03:35:05.588Z,16.30
2022-09-11T03:35:17.345Z,16.30
2022-09-11T03:35:29.308Z,16.30
2022-09-11T03:35:41.009Z,16.30
2022-09-11T03:35:52.744Z,16.30
2022-09-11T03:36:04.806Z,16.30
2022-09-11T03:36:16.579Z,16.30
2022-09-11T03:36:28.307Z,16.30
2022-09-11T03:36:40.545Z,16.30
2022-09-11T03:36:52.761Z,16.30
2022-09-11T03:37:04.671Z,16.30
2022-09-11T03:37:16.393Z,16.30
2022-09-11T03:37:28.176Z,16.20
2022-09-11T03:37:39.954Z,16.20
2022-09-11T03:37:52.016Z,16.20
2022-09-11T03:38:03.773Z,16.20
2022-09-11T03:38:15.964Z,16.20
2022-09-11T03:38:27.674Z,16.20
2022-09-11T03:38:39.570Z,16.20
2022-09-11T03:38:52.704Z,16.20
2022-09-11T03:39:04.630Z,16.20
2022-09-11T03:39:16.411Z,16.20